createdAt,value
2018-04-02T00:01:13.138Z,5.20
2018-04-02T00:03:39.749Z,4.65
2018-04-02T00:06:06.318Z,4.97
2018-04-02T00:08:32.883Z,5.55
2018-04-02T00:10:59.481Z,4.30
2018-04-02T00:13:26.413Z,4.90
2018-04-02T00:15:52.981Z,5.05
2018-04-02T00:18:19.526Z,5.40
2018-04-02T00:20:46.487Z,4.72
2018-04-02T00:23:13.086Z,4.57
2018-04-02T00:25:39.634Z,4.60
2018-04-02T00:28:06.206Z,4.10
2018-04-02T00:30:32.774Z,4.43
2018-04-02T00:32:59.758Z,4.65
2018-04-02T00:35:26.324Z,4.55
2018-04-02T00:37:52.904Z,3.90
2018-04-02T00:40:19.441Z,3.62
2018-04-02T00:42:46.007Z,3.70
2018-04-02T00:45:12.570Z,4.47
2018-04-02T00:47:39.109Z,4.25
2018-04-02T00:50:06.057Z,4.00
2018-04-02T00:52:32.989Z,3.62
2018-04-02T00:54:59.529Z,3.60
2018-04-02T00:57:26.102Z,3.72
2018-04-02T00:59:53.125Z,3.25
2018-04-02T01:02:19.657Z,4.15
2018-04-02T01:04:46.255Z,3.58
2018-04-02T01:07:13.217Z,3.37
2018-04-02T01:09:40.135Z,3.20
2018-04-02T01:12:06.701Z,3.33
2018-04-02T01:14:33.270Z,3.90
2018-04-02T01:17:00.162Z,3.33
2018-04-02T01:19:26.731Z,3.25
2018-04-02T01:21:53.294Z,3.00
2018-04-02T01:24:19.817Z,3.20
2018-04-02T01:26:46.403Z,3.58
2018-04-02T01:29:13.015Z,3.95
2018-04-02T01:31:39.545Z,3.78
2018-04-02T01:34:06.106Z,3.10
2018-04-02T01:36:32.677Z,3.00
2018-04-02T01:38:59.217Z,2.58
2018-04-02T01:41:25.793Z,2.65
2018-04-02T01:43:52.738Z,2.75
2018-04-02T01:46:19.290Z,2.90
2018-04-02T01:48:45.852Z,3.10
2018-04-02T01:51:13.076Z,2.70
2018-04-02T01:53:42.191Z,2.60
2018-04-02T01:56:08.758Z,2.83
2018-04-02T01:58:35.325Z,4.95
2018-04-02T02:01:02.226Z,3.00
2018-04-02T02:03:28.809Z,3.45
2018-04-02T02:05:55.462Z,2.90
2018-04-02T02:08:22.370Z,3.30
2018-04-02T02:10:48.934Z,3.40
2018-04-02T02:13:15.520Z,3.45
2018-04-02T02:15:42.425Z,2.85
2018-04-02T02:18:08.982Z,2.75
2018-04-02T02:20:35.553Z,3.30
2018-04-02T02:23:02.179Z,2.85
2018-04-02T02:25:28.806Z,4.70
2018-04-02T02:27:55.482Z,3.45
2018-04-02T02:30:22.011Z,3.35
2018-04-02T02:32:48.585Z,3.30
2018-04-02T02:35:15.153Z,2.85
2018-04-02T02:37:42.065Z,2.90
2018-04-02T02:40:08.637Z,2.60
2018-04-02T02:42:35.223Z,2.70
2018-04-02T02:45:01.813Z,3.30
2018-04-02T02:47:28.458Z,2.55
2018-04-02T02:49:55.030Z,3.03
2018-04-02T02:52:21.569Z,2.95
2018-04-02T02:54:48.143Z,3.20
2018-04-02T02:57:15.171Z,4.03
2018-04-02T02:59:41.697Z,3.10
2018-04-02T03:02:08.266Z,3.40
2018-04-02T03:04:34.897Z,2.95
2018-04-02T03:07:01.423Z,3.15
2018-04-02T03:09:27.984Z,3.30
2018-04-02T03:11:54.559Z,3.00
2018-04-02T03:14:21.113Z,2.83
2018-04-02T03:16:47.681Z,2.42
2018-04-02T03:19:14.619Z,3.05
2018-04-02T03:21:41.152Z,3.10
2018-04-02T03:24:07.713Z,3.53
2018-04-02T03:26:34.275Z,3.70
2018-04-02T03:29:00.840Z,3.28
2018-04-02T03:31:27.779Z,2.85
2018-04-02T03:33:54.778Z,3.08
2018-04-02T03:36:21.309Z,4.10
2018-04-02T03:38:47.901Z,3.80
2018-04-02T03:41:14.467Z,2.90
2018-04-02T03:43:41.010Z,2.75
2018-04-02T03:46:07.595Z,3.58
2018-04-02T03:48:34.171Z,3.72
2018-04-02T03:51:00.699Z,3.50
2018-04-02T03:53:27.305Z,3.30
2018-04-02T03:55:53.893Z,3.20
2018-04-02T03:58:20.440Z,3.80
2018-04-02T04:00:47.006Z,3.72
2018-04-02T04:03:13.649Z,4.28
2018-04-02T04:05:40.210Z,3.65
2018-04-02T04:08:06.785Z,4.40
2018-04-02T04:10:33.377Z,3.92
2018-04-02T04:12:59.898Z,3.25
2018-04-02T04:15:26.849Z,3.97
2018-04-02T04:17:54.364Z,3.28
2018-04-02T04:20:20.902Z,3.78
2018-04-02T04:22:47.461Z,4.07
2018-04-02T04:25:14.049Z,3.70
2018-04-02T04:27:40.585Z,4.65
2018-04-02T04:30:07.150Z,4.20
2018-04-02T04:32:33.749Z,3.67
2018-04-02T04:35:00.306Z,3.70
2018-04-02T04:37:26.870Z,4.50
2018-04-02T04:39:53.430Z,3.87
2018-04-02T04:42:19.958Z,6.22
2018-04-02T04:44:46.523Z,3.90
2018-04-02T04:47:13.094Z,3.70
2018-04-02T04:49:39.993Z,3.70
2018-04-02T04:52:06.555Z,3.40
2018-04-02T04:54:33.205Z,3.62
2018-04-02T04:56:59.737Z,3.30
2018-04-02T04:59:26.340Z,3.28
2018-04-02T05:01:53.289Z,3.58
2018-04-02T05:04:19.843Z,3.50
2018-04-02T05:06:46.813Z,3.37
2018-04-02T05:09:13.741Z,4.20
2018-04-02T05:11:40.317Z,3.65
2018-04-02T05:14:07.262Z,5.60
2018-04-02T05:16:34.205Z,3.62
2018-04-02T05:19:01.133Z,3.90
2018-04-02T05:21:27.710Z,3.90
2018-04-02T05:23:54.293Z,3.85
2018-04-02T05:26:20.914Z,3.85
2018-04-02T05:28:47.482Z,3.95
2018-04-02T05:31:14.427Z,4.40
2018-04-02T05:33:41.334Z,4.00
2018-04-02T05:36:07.902Z,3.33
2018-04-02T05:38:34.461Z,3.35
2018-04-02T05:41:01.017Z,3.03
2018-04-02T05:43:27.983Z,3.25
2018-04-02T05:45:54.934Z,3.80
2018-04-02T05:48:21.840Z,5.53
2018-04-02T05:50:48.426Z,4.95
2018-04-02T05:53:15.370Z,3.83
2018-04-02T05:55:41.905Z,3.50
2018-04-02T05:58:08.509Z,3.53
2018-04-02T06:00:35.072Z,3.17
2018-04-02T06:03:01.608Z,3.22
2018-04-02T06:05:28.269Z,2.90
2018-04-02T06:07:54.838Z,3.42
2018-04-02T06:10:21.387Z,2.97
2018-04-02T06:12:47.948Z,3.20
2018-04-02T06:15:14.905Z,3.35
2018-04-02T06:17:41.438Z,3.10
2018-04-02T06:20:08.009Z,2.85
2018-04-02T06:22:34.569Z,3.00
2018-04-02T06:25:01.475Z,2.80
2018-04-02T06:27:28.056Z,3.25
2018-04-02T06:29:54.620Z,2.87
2018-04-02T06:32:21.544Z,2.17
2018-04-02T06:34:48.513Z,3.10
2018-04-02T06:37:15.094Z,2.70
2018-04-02T06:39:41.996Z,2.75
2018-04-02T06:42:08.574Z,3.00
2018-04-02T06:44:35.154Z,2.08
2018-04-02T06:47:01.697Z,3.15
2018-04-02T06:49:28.269Z,2.30
2018-04-02T06:51:54.832Z,2.70
2018-04-02T06:54:21.370Z,2.60
2018-04-02T06:56:47.946Z,2.37
2018-04-02T06:59:14.514Z,2.87
2018-04-02T07:01:41.421Z,2.95
2018-04-02T07:04:07.990Z,2.83
2018-04-02T07:06:34.590Z,2.85
2018-04-02T07:09:01.181Z,2.95
2018-04-02T07:11:27.742Z,3.20
2018-04-02T07:13:54.305Z,2.55
2018-04-02T07:16:21.209Z,2.50
2018-04-02T07:18:47.778Z,3.60
2018-04-02T07:21:14.374Z,3.85
2018-04-02T07:23:40.962Z,3.37
2018-04-02T07:26:07.529Z,3.85
2018-04-02T07:28:34.110Z,4.35
2018-04-02T07:31:01.031Z,3.75
2018-04-02T07:33:27.603Z,3.85
2018-04-02T07:35:54.562Z,3.70
2018-04-02T07:38:21.473Z,4.15
2018-04-02T07:40:48.042Z,4.07
2018-04-02T07:43:14.784Z,4.97
2018-04-02T07:45:41.764Z,4.00
2018-04-02T07:48:08.785Z,3.47
2018-04-02T07:50:35.455Z,4.10
2018-04-02T07:53:02.018Z,4.30
2018-04-02T07:55:28.585Z,3.62
2018-04-02T07:57:55.166Z,4.60
2018-04-02T08:00:21.748Z,4.80
2018-04-02T08:02:48.327Z,3.30
2018-04-02T08:05:15.002Z,3.15
2018-04-02T08:07:41.595Z,3.10
2018-04-02T08:10:08.178Z,2.87
2018-04-02T08:12:35.162Z,2.92
2018-04-02T08:15:01.706Z,2.75
2018-04-02T08:17:28.317Z,2.70
2018-04-02T08:19:54.935Z,3.55
2018-04-02T08:22:21.534Z,3.75
2018-04-02T08:24:48.133Z,2.80
2018-04-02T08:27:14.698Z,3.30
2018-04-02T08:29:41.253Z,3.10
2018-04-02T08:32:08.210Z,2.67
2018-04-02T08:34:35.145Z,2.65
2018-04-02T08:37:01.683Z,2.70
2018-04-02T08:39:28.292Z,2.75
2018-04-02T08:41:55.202Z,2.47
2018-04-02T08:44:21.788Z,3.50
2018-04-02T08:46:48.368Z,2.58
2018-04-02T08:49:14.957Z,2.65
2018-04-02T08:51:41.501Z,2.70
2018-04-02T08:54:08.478Z,3.30
2018-04-02T08:56:35.469Z,2.33
2018-04-02T08:59:02.049Z,2.35
2018-04-02T09:01:28.690Z,2.20
2018-04-02T09:03:55.677Z,2.80
2018-04-02T09:06:22.617Z,3.58
2018-04-02T09:08:49.202Z,3.00
2018-04-02T09:11:15.794Z,3.05
2018-04-02T09:13:42.336Z,2.70
2018-04-02T09:16:08.917Z,2.17
2018-04-02T09:18:35.869Z,2.47
2018-04-02T09:21:02.409Z,2.05
2018-04-02T09:23:29.009Z,2.40
2018-04-02T09:25:55.641Z,1.95
2018-04-02T09:28:22.598Z,2.72
2018-04-02T09:30:49.173Z,1.90
2018-04-02T09:33:15.799Z,2.12
2018-04-02T09:35:42.365Z,2.30
2018-04-02T09:38:08.933Z,1.90
2018-04-02T09:40:35.502Z,1.65
2018-04-02T09:43:02.430Z,2.10
2018-04-02T09:45:29.009Z,1.73
2018-04-02T09:47:55.970Z,1.52
2018-04-02T09:50:22.903Z,1.75
2018-04-02T09:52:49.896Z,1.60
2018-04-02T09:55:16.890Z,1.87
2018-04-02T09:57:43.429Z,1.87
2018-04-02T10:02:44.638Z,1.75
2018-04-02T10:05:11.318Z,1.90
2018-04-02T10:07:37.921Z,2.20
2018-04-02T10:10:04.537Z,1.60
2018-04-02T10:12:31.064Z,1.90
2018-04-02T10:14:58.170Z,1.97
2018-04-02T10:17:24.740Z,1.70
2018-04-02T10:19:51.446Z,1.50
2018-04-02T10:22:18.050Z,1.60
2018-04-02T10:24:44.713Z,1.33
2018-04-02T10:27:11.290Z,1.90
2018-04-02T10:29:37.883Z,1.30
2018-04-02T10:32:04.429Z,1.50
2018-04-02T10:34:32.165Z,2.10
2018-04-02T10:36:58.749Z,1.70
2018-04-02T10:39:25.563Z,1.60
2018-04-02T10:41:52.210Z,2.23
2018-04-02T10:44:18.822Z,1.63
2018-04-02T10:46:45.416Z,1.43
2018-04-02T10:49:12.042Z,1.60
2018-04-02T10:51:39.013Z,2.20
2018-04-02T10:54:05.563Z,1.50
2018-04-02T10:56:32.104Z,1.53
2018-04-02T10:58:59.057Z,1.50
2018-04-02T11:01:25.978Z,1.40
2018-04-02T11:03:52.554Z,1.73
2018-04-02T11:06:19.614Z,1.97
2018-04-02T11:08:46.559Z,1.47
2018-04-02T11:11:13.105Z,1.67
2018-04-02T11:13:39.697Z,1.30
2018-04-02T11:16:06.277Z,1.43
2018-04-02T11:18:32.812Z,1.60
2018-04-02T11:20:59.442Z,1.40
2018-04-02T11:23:26.030Z,2.30
2018-04-02T11:25:52.614Z,1.03
2018-04-02T11:28:19.522Z,1.60
2018-04-02T11:30:46.114Z,1.40
2018-04-02T11:33:13.069Z,1.50
2018-04-02T11:35:39.994Z,1.50
2018-04-02T11:38:06.642Z,1.43
2018-04-02T11:40:34.076Z,2.00
2018-04-02T11:43:00.943Z,1.30
2018-04-02T11:45:27.518Z,1.33
2018-04-02T11:47:54.074Z,1.07
2018-04-02T11:50:20.667Z,1.27
2018-04-02T11:52:47.201Z,1.37
2018-04-02T11:55:13.862Z,1.47
2018-04-02T11:57:40.413Z,1.03
2018-04-02T12:00:07.021Z,1.10
2018-04-02T12:02:33.549Z,1.13
2018-04-02T12:05:00.083Z,1.13
2018-04-02T12:07:26.654Z,1.17
2018-04-02T12:09:53.185Z,1.13
2018-04-02T12:12:19.766Z,1.37
2018-04-02T12:14:46.685Z,1.20
2018-04-02T12:17:13.672Z,1.47
2018-04-02T12:19:40.590Z,1.67
2018-04-02T12:22:07.167Z,1.00
2018-04-02T12:24:33.701Z,0.97
2018-04-02T12:27:00.278Z,1.00
2018-04-02T12:29:27.205Z,1.23
2018-04-02T12:31:53.790Z,1.13
2018-04-02T12:34:20.334Z,1.00
2018-04-02T12:36:47.282Z,1.20
2018-04-02T12:39:14.194Z,1.00
2018-04-02T12:41:40.766Z,1.10
2018-04-02T12:44:07.307Z,0.90
2018-04-02T12:46:33.886Z,0.90
2018-04-02T12:49:00.806Z,1.10
2018-04-02T12:51:27.390Z,0.80
2018-04-02T12:53:54.041Z,0.90
2018-04-02T12:56:20.990Z,0.90
2018-04-02T12:58:47.946Z,0.70
2018-04-02T13:01:14.857Z,0.90
2018-04-02T13:03:41.450Z,1.00
2018-04-02T13:06:08.381Z,0.70
2018-04-02T13:08:34.949Z,0.90
2018-04-02T13:11:01.882Z,0.93
2018-04-02T13:13:28.458Z,0.70
2018-04-02T13:15:55.374Z,0.70
2018-04-02T13:18:21.985Z,0.60
2018-04-02T13:20:48.556Z,1.07
2018-04-02T13:23:15.126Z,0.70
2018-04-02T13:25:41.670Z,1.17
2018-04-02T13:28:08.245Z,0.80
2018-04-02T13:30:35.159Z,0.90
2018-04-02T13:33:02.152Z,1.20
2018-04-02T13:35:29.074Z,0.73
2018-04-02T13:37:55.703Z,0.90
2018-04-02T13:40:22.266Z,0.67
2018-04-02T13:42:48.806Z,1.10
2018-04-02T13:45:15.386Z,1.00
2018-04-02T13:47:41.930Z,0.70
2018-04-02T13:50:08.506Z,0.70
2018-04-02T13:52:35.121Z,0.90
2018-04-02T13:55:01.736Z,0.83
2018-04-02T13:57:28.274Z,0.80
2018-04-02T13:59:54.846Z,0.83
2018-04-02T14:02:21.389Z,0.67
2018-04-02T14:04:47.978Z,0.57
2018-04-02T14:07:14.527Z,0.80
2018-04-02T14:09:41.516Z,0.80
2018-04-02T14:12:08.049Z,0.80
2018-04-02T14:14:34.621Z,0.90
2018-04-02T14:17:01.158Z,0.70
2018-04-02T14:19:27.690Z,0.70
2018-04-02T14:21:54.633Z,1.07
2018-04-02T14:24:21.550Z,1.10
2018-04-02T14:26:48.150Z,0.80
2018-04-02T14:29:14.758Z,1.00
2018-04-02T14:31:41.337Z,0.70
2018-04-02T14:34:08.269Z,1.00
2018-04-02T14:36:34.836Z,0.90
2018-04-02T14:39:01.750Z,0.80
2018-04-02T14:41:28.341Z,0.70
2018-04-02T14:43:55.246Z,0.77
2018-04-02T14:46:21.826Z,0.90
2018-04-02T14:48:48.359Z,0.80
2018-04-02T14:51:14.937Z,1.00
2018-04-02T14:53:41.868Z,0.90
2018-04-02T14:56:08.486Z,0.93
2018-04-02T14:58:35.017Z,0.90
2018-04-02T15:01:01.609Z,0.70
2018-04-02T15:03:28.175Z,0.70
2018-04-02T15:05:54.736Z,0.93
2018-04-02T15:08:21.682Z,1.00
2018-04-02T15:10:48.586Z,1.10
2018-04-02T15:13:15.169Z,0.70
2018-04-02T15:15:41.714Z,0.80
2018-04-02T15:18:08.310Z,0.77
2018-04-02T15:20:34.846Z,1.10
2018-04-02T15:23:01.790Z,0.77
2018-04-02T15:25:28.702Z,1.00
2018-04-02T15:27:55.284Z,1.00
2018-04-02T15:30:21.818Z,0.80
2018-04-02T15:32:48.404Z,0.67
2018-04-02T15:35:14.972Z,0.80
2018-04-02T15:37:48.449Z,0.70
2018-04-02T15:40:15.391Z,0.80
2018-04-02T15:42:41.971Z,0.67
2018-04-02T15:45:08.502Z,0.57
2018-04-02T15:47:35.451Z,0.90
2018-04-02T15:50:02.456Z,0.90
2018-04-02T15:52:29.009Z,0.83
2018-04-02T15:54:55.621Z,0.90
2018-04-02T15:57:22.158Z,0.70
2018-04-02T15:59:49.130Z,0.70
2018-04-02T16:02:15.690Z,0.73
2018-04-02T16:04:42.278Z,0.67
2018-04-02T16:07:08.826Z,0.70
2018-04-02T16:09:35.405Z,0.70
2018-04-02T16:12:02.320Z,0.63
2018-04-02T16:14:28.894Z,1.10
2018-04-02T16:16:56.391Z,1.13
2018-04-02T16:19:22.969Z,1.10
2018-04-02T16:21:49.505Z,1.73
2018-04-02T16:24:16.094Z,1.27
2018-04-02T16:26:42.657Z,0.80
2018-04-02T16:29:09.605Z,0.90
2018-04-02T16:31:36.151Z,1.10
2018-04-02T16:34:03.106Z,0.90
2018-04-02T16:36:29.685Z,0.67
2018-04-02T16:38:56.242Z,2.13
2018-04-02T16:41:22.866Z,1.50
2018-04-02T16:43:49.817Z,1.63
2018-04-02T16:46:16.773Z,1.10
2018-04-02T16:48:43.673Z,1.50
2018-04-02T16:51:10.268Z,1.10
2018-04-02T16:53:36.919Z,1.20
2018-04-02T16:56:03.559Z,1.40
2018-04-02T16:58:30.138Z,1.73
2018-04-02T17:00:57.105Z,1.20
2018-04-02T17:03:23.685Z,1.20
2018-04-02T17:05:50.273Z,1.70
2018-04-02T17:08:16.866Z,0.80
2018-04-02T17:10:43.443Z,1.00
2018-04-02T17:13:09.991Z,0.70
2018-04-02T17:15:36.573Z,0.70
2018-04-02T17:18:03.503Z,1.90
2018-04-02T17:20:30.042Z,1.87
2018-04-02T17:22:56.644Z,0.90
2018-04-02T17:25:23.173Z,1.40
2018-04-02T17:27:49.754Z,1.30
2018-04-02T17:30:16.313Z,1.40
2018-04-02T17:32:42.891Z,1.23
2018-04-02T17:35:09.424Z,1.00
2018-04-02T17:37:36.013Z,1.13
2018-04-02T17:40:03.012Z,1.00
2018-04-02T17:42:29.673Z,0.87
2018-04-02T17:44:56.220Z,1.27
2018-04-02T17:47:22.789Z,1.00
2018-04-02T17:49:49.327Z,1.40
2018-04-02T17:52:16.026Z,0.90
2018-04-02T17:54:42.601Z,0.93
2018-04-02T17:57:09.173Z,1.60
2018-04-02T17:59:35.734Z,1.50
2018-04-02T18:02:02.333Z,2.17
2018-04-02T18:04:28.880Z,1.00
2018-04-02T18:06:55.422Z,1.03
2018-04-02T18:09:22.004Z,1.33
2018-04-02T18:11:48.542Z,0.77
2018-04-02T18:14:15.190Z,0.90
2018-04-02T18:16:41.722Z,1.00
2018-04-02T18:19:08.362Z,0.90
2018-04-02T18:21:35.017Z,0.93
2018-04-02T18:24:01.699Z,0.97
2018-04-02T18:26:28.239Z,0.83
2018-04-02T18:28:54.825Z,1.00
2018-04-02T18:31:21.737Z,0.90
2018-04-02T18:33:48.273Z,1.00
2018-04-02T18:36:14.881Z,1.00
2018-04-02T18:38:41.790Z,0.97
2018-04-02T18:41:08.382Z,0.90
2018-04-02T18:43:34.957Z,0.83
2018-04-02T18:46:01.541Z,1.10
2018-04-02T18:48:28.102Z,0.90
2018-04-02T18:50:54.698Z,0.90
2018-04-02T18:53:21.254Z,0.73
2018-04-02T18:55:47.869Z,1.20
2018-04-02T18:58:14.898Z,0.83
2018-04-02T19:00:41.485Z,1.23
2018-04-02T19:03:08.030Z,1.57
2018-04-02T19:05:34.632Z,1.37
2018-04-02T19:08:01.165Z,1.50
2018-04-02T19:10:27.750Z,1.33
2018-04-02T19:12:54.657Z,1.37
2018-04-02T19:15:21.306Z,2.10
2018-04-02T19:17:47.849Z,1.40
2018-04-02T19:20:14.390Z,1.03
2018-04-02T19:22:41.077Z,0.90
2018-04-02T19:25:07.698Z,0.83
2018-04-02T19:27:34.281Z,0.87
2018-04-02T19:30:00.893Z,0.90
2018-04-02T19:32:27.489Z,0.87
2018-04-02T19:34:54.035Z,0.90
2018-04-02T19:37:20.739Z,1.47
2018-04-02T19:39:47.277Z,0.90
2018-04-02T19:42:13.862Z,1.07
2018-04-02T19:44:40.508Z,0.80
2018-04-02T19:47:07.088Z,1.00
2018-04-02T19:49:34.133Z,1.00
2018-04-02T19:52:00.745Z,1.00
2018-04-02T19:54:27.330Z,1.10
2018-04-02T19:56:53.901Z,1.10
2018-04-02T19:59:20.806Z,1.17
2018-04-02T20:01:47.386Z,1.10
2018-04-02T20:04:13.947Z,0.90
2018-04-02T20:06:40.906Z,1.20
2018-04-02T20:09:07.828Z,1.47
2018-04-02T20:11:34.361Z,1.57
2018-04-02T20:14:00.925Z,1.23
2018-04-02T20:16:27.465Z,1.03
2018-04-02T20:18:54.051Z,1.23
2018-04-02T20:21:20.974Z,1.23
2018-04-02T20:23:47.546Z,1.10
2018-04-02T20:26:14.463Z,1.63
2018-04-02T20:28:41.039Z,1.43
2018-04-02T20:31:07.958Z,1.20
2018-04-02T20:33:34.533Z,1.37
2018-04-02T20:36:01.082Z,1.40
2018-04-02T20:38:27.656Z,1.20
2018-04-02T20:41:01.346Z,1.33
2018-04-02T20:43:27.928Z,1.30
2018-04-02T20:45:54.467Z,1.30
2018-04-02T20:48:21.061Z,1.40
2018-04-02T20:50:47.626Z,1.73
2018-04-02T20:53:14.210Z,1.40
2018-04-02T20:55:41.161Z,1.27
2018-04-02T20:58:07.706Z,1.77
2018-04-02T21:00:34.657Z,1.07
2018-04-02T21:03:01.569Z,1.20
2018-04-02T21:05:28.165Z,1.40
2018-04-02T21:07:55.097Z,1.20
2018-04-02T21:10:21.697Z,1.10
2018-04-02T21:12:48.241Z,1.60
2018-04-02T21:15:14.828Z,1.80
2018-04-02T21:17:41.361Z,2.67
2018-04-02T21:20:07.965Z,1.30
2018-04-02T21:22:34.522Z,1.70
2018-04-02T21:25:01.105Z,1.77
2018-04-02T21:27:27.642Z,1.27
2018-04-02T21:29:54.228Z,1.47
2018-04-02T21:32:20.772Z,1.60
2018-04-02T21:34:47.358Z,1.87
2018-04-02T21:37:13.892Z,1.90
2018-04-02T21:39:40.793Z,1.80
2018-04-02T21:42:07.366Z,2.00
2018-04-02T21:44:33.959Z,2.90
2018-04-02T21:47:00.557Z,2.30
2018-04-02T21:49:27.103Z,1.70
2018-04-02T21:51:53.705Z,1.40
2018-04-02T21:54:20.281Z,1.30
2018-04-02T21:56:46.909Z,1.23
2018-04-02T21:59:13.454Z,1.90
2018-04-02T22:01:40.042Z,1.50
2018-04-02T22:04:06.569Z,1.80
2018-04-02T22:06:45.258Z,2.10
2018-04-02T22:09:11.798Z,1.73
2018-04-02T22:11:38.754Z,1.90
2018-04-02T22:14:05.686Z,1.50
2018-04-02T22:16:32.271Z,1.62
2018-04-02T22:18:58.819Z,1.52
2018-04-02T22:21:25.446Z,1.37
2018-04-02T22:23:52.370Z,1.30
2018-04-02T22:26:18.962Z,1.70
2018-04-02T22:28:45.501Z,1.17
2018-04-02T22:31:12.433Z,1.15
2018-04-02T22:33:39.006Z,1.53
2018-04-02T22:36:05.969Z,1.30
2018-04-02T22:38:32.917Z,1.43
2018-04-02T22:40:59.885Z,1.45
2018-04-02T22:43:27.105Z,1.15
2018-04-02T22:45:53.658Z,1.37
2018-04-02T22:48:20.329Z,1.35
2018-04-02T22:50:47.305Z,1.48
2018-04-02T22:53:13.946Z,2.30
2018-04-02T22:55:40.494Z,1.35
2018-04-02T22:58:07.457Z,1.10
2018-04-02T23:00:34.106Z,1.85
2018-04-02T23:03:00.738Z,1.83
2018-04-02T23:05:27.649Z,1.40
2018-04-02T23:07:54.225Z,1.50
2018-04-02T23:10:20.778Z,1.42
2018-04-02T23:12:47.362Z,1.50
2018-04-02T23:15:13.899Z,1.33
2018-04-02T23:17:40.481Z,1.20
2018-04-02T23:20:07.022Z,1.40
2018-04-02T23:22:45.861Z,1.73
2018-04-02T23:25:12.401Z,1.45
2018-04-02T23:27:38.937Z,1.58
2018-04-02T23:30:12.603Z,1.35
2018-04-02T23:32:39.198Z,1.37
2018-04-02T23:35:05.778Z,1.50
2018-04-02T23:37:32.392Z,1.05
2018-04-02T23:39:58.998Z,1.65
2018-04-02T23:42:25.540Z,1.25
2018-04-02T23:44:52.130Z,1.52
2018-04-02T23:47:19.078Z,1.23
2018-04-02T23:49:46.027Z,1.50
2018-04-02T23:52:12.992Z,1.37
2018-04-02T23:54:39.961Z,1.30
2018-04-02T23:57:06.493Z,1.27
2018-04-02T23:59:33.392Z,1.60
